createdAt,value
2023-03-11T00:00:28.489Z,10.33
2023-03-11T00:02:58.873Z,14.10
2023-03-11T00:05:37.645Z,9.67
2023-03-11T00:08:06.038Z,10.10
2023-03-11T00:10:39.346Z,12.77
2023-03-11T00:13:08.522Z,10.77
2023-03-11T00:15:35.917Z,13.60
2023-03-11T00:18:03.020Z,15.57
2023-03-11T00:20:33.921Z,10.87
2023-03-11T00:23:01.747Z,9.80
2023-03-11T00:25:31.592Z,13.63
2023-03-11T00:27:58.501Z,16.40
2023-03-11T00:30:25.790Z,11.07
2023-03-11T00:32:54.365Z,16.37
2023-03-11T00:35:24.656Z,11.80
2023-03-11T00:37:55.478Z,10.53
2023-03-11T00:40:23.265Z,12.00
2023-03-11T00:42:50.072Z,12.60
2023-03-11T00:45:17.166Z,12.87
2023-03-11T00:47:43.923Z,13.63
2023-03-11T00:50:18.142Z,14.17
2023-03-11T00:52:46.381Z,9.90
2023-03-11T00:55:15.730Z,13.67
2023-03-11T00:57:43.650Z,11.13
2023-03-11T01:00:15.159Z,10.80
2023-03-11T01:02:41.939Z,10.00
2023-03-11T01:05:09.478Z,11.53
2023-03-11T01:07:36.498Z,12.30
2023-03-11T01:10:05.064Z,11.60
2023-03-11T01:12:31.771Z,13.80
2023-03-11T01:14:58.621Z,18.40
2023-03-11T01:17:25.312Z,18.53
2023-03-11T01:19:51.986Z,19.40
2023-03-11T01:22:20.166Z,16.40
2023-03-11T01:24:46.886Z,19.53
2023-03-11T01:27:13.588Z,17.50
2023-03-11T01:29:40.302Z,18.27
2023-03-11T01:32:07.354Z,17.90
2023-03-11T01:34:36.133Z,21.10
2023-03-11T01:37:04.029Z,18.77
2023-03-11T01:39:30.963Z,17.53
2023-03-11T01:41:58.012Z,18.40
2023-03-11T01:44:24.708Z,20.20
2023-03-11T01:46:54.599Z,21.13
2023-03-11T01:49:23.301Z,17.27
2023-03-11T01:51:53.821Z,19.90
2023-03-11T01:54:31.893Z,16.63
2023-03-11T01:57:01.997Z,20.23
2023-03-11T01:59:37.674Z,21.70
2023-03-11T02:02:14.566Z,20.67
2023-03-11T02:04:42.199Z,20.73
2023-03-11T02:07:11.690Z,24.40
2023-03-11T02:09:38.603Z,20.33
2023-03-11T02:12:09.273Z,24.57
2023-03-11T02:14:38.934Z,18.10
2023-03-11T02:17:05.619Z,23.53
2023-03-11T02:20:12.247Z,23.57
2023-03-11T02:22:42.169Z,20.30
2023-03-11T02:25:16.731Z,21.00
2023-03-11T02:27:47.633Z,19.00
2023-03-11T02:30:16.262Z,18.70
2023-03-11T02:32:45.244Z,19.70
2023-03-11T02:35:12.100Z,24.90
2023-03-11T02:37:45.418Z,22.43
2023-03-11T02:40:33.823Z,15.83
2023-03-11T02:43:03.551Z,17.93
2023-03-11T02:45:31.547Z,20.23
2023-03-11T02:47:59.629Z,19.50
2023-03-11T02:50:28.552Z,21.43
2023-03-11T02:52:55.363Z,19.03
2023-03-11T02:55:22.182Z,19.83
2023-03-11T02:57:48.927Z,16.00
2023-03-11T03:00:18.383Z,16.20
2023-03-11T03:02:45.822Z,18.57
2023-03-11T03:05:13.543Z,18.27
2023-03-11T03:07:40.234Z,18.30
2023-03-11T03:10:07.525Z,18.10
2023-03-11T03:12:34.513Z,17.63
2023-03-11T03:15:01.187Z,20.37
2023-03-11T03:17:28.000Z,18.97
2023-03-11T03:19:54.780Z,21.37
2023-03-11T03:22:21.503Z,17.13
2023-03-11T03:24:48.280Z,19.03
2023-03-11T03:27:15.057Z,18.53
2023-03-11T03:29:41.738Z,22.13
2023-03-11T03:32:08.463Z,21.53
2023-03-11T03:34:35.278Z,25.03
2023-03-11T03:37:02.094Z,21.73
2023-03-11T03:39:30.698Z,19.87
2023-03-11T03:41:57.578Z,22.70
2023-03-11T03:44:24.330Z,19.20
2023-03-11T03:46:51.051Z,20.60
2023-03-11T03:49:17.682Z,25.87
2023-03-11T03:51:44.395Z,23.13
2023-03-11T03:54:11.071Z,20.80
2023-03-11T03:56:37.751Z,21.27
2023-03-11T03:59:04.563Z,21.17
2023-03-11T04:01:31.308Z,25.00
2023-03-11T04:03:58.008Z,20.53
2023-03-11T04:06:27.201Z,20.93
2023-03-11T04:08:54.973Z,22.37
2023-03-11T04:11:22.883Z,23.00
2023-03-11T04:13:50.151Z,22.10
2023-03-11T04:16:23.617Z,22.10
2023-03-11T04:18:50.684Z,19.73
2023-03-11T04:21:17.496Z,20.93
2023-03-11T04:23:44.262Z,20.00
2023-03-11T04:26:11.188Z,19.40
2023-03-11T04:28:37.888Z,21.80
2023-03-11T04:31:04.811Z,23.27
2023-03-11T04:33:31.885Z,21.03
2023-03-11T04:35:59.078Z,18.83
2023-03-11T04:38:25.756Z,22.20
2023-03-11T04:40:52.712Z,19.63
2023-03-11T04:43:19.590Z,18.43
2023-03-11T04:45:50.307Z,19.60
2023-03-11T04:48:17.012Z,13.77
2023-03-11T04:50:43.837Z,18.63
2023-03-11T04:53:10.628Z,18.20
2023-03-11T04:55:37.434Z,18.50
2023-03-11T04:58:04.138Z,21.80
2023-03-11T05:00:30.917Z,19.47
2023-03-11T05:02:57.688Z,15.57
2023-03-11T05:05:24.395Z,17.20
2023-03-11T05:07:51.083Z,16.10
2023-03-11T05:10:22.427Z,16.67
2023-03-11T05:12:52.941Z,17.37
2023-03-11T05:15:19.684Z,22.17
2023-03-11T05:17:46.627Z,19.60
2023-03-11T05:20:15.608Z,21.23
2023-03-11T05:22:42.576Z,17.37
2023-03-11T05:25:09.949Z,16.63
2023-03-11T05:27:36.627Z,14.80
2023-03-11T05:30:04.134Z,18.37
2023-03-11T05:32:30.901Z,17.20
2023-03-11T05:34:57.645Z,19.30
2023-03-11T05:37:24.389Z,16.33
2023-03-11T05:39:52.366Z,17.87
2023-03-11T05:42:21.286Z,16.33
2023-03-11T05:44:48.247Z,21.10
2023-03-11T05:47:17.046Z,16.17
2023-03-11T05:49:48.701Z,18.30
2023-03-11T05:52:16.418Z,16.13
2023-03-11T05:54:43.271Z,19.83
2023-03-11T05:57:09.959Z,15.00
2023-03-11T05:59:37.818Z,16.03
2023-03-11T06:02:04.728Z,18.97
2023-03-11T06:04:31.799Z,17.60
2023-03-11T06:06:58.612Z,16.93
2023-03-11T06:09:25.356Z,21.53
2023-03-11T06:11:52.085Z,18.13
2023-03-11T06:14:18.794Z,18.00
2023-03-11T06:16:45.771Z,18.40
2023-03-11T06:19:12.572Z,17.83
2023-03-11T06:21:39.472Z,16.83
2023-03-11T06:24:06.534Z,16.30
2023-03-11T06:26:34.326Z,16.57
2023-03-11T06:29:01.084Z,12.70
2023-03-11T06:31:29.235Z,12.83
2023-03-11T06:33:56.207Z,15.57
2023-03-11T06:36:23.659Z,17.20
2023-03-11T06:38:52.676Z,15.83
2023-03-11T06:41:21.142Z,14.47
2023-03-11T06:43:53.955Z,12.87
2023-03-11T06:46:22.856Z,14.13
2023-03-11T06:48:52.467Z,11.67
2023-03-11T06:51:20.844Z,10.77
2023-03-11T06:53:53.992Z,9.70
2023-03-11T06:56:22.652Z,10.07
2023-03-11T06:58:49.417Z,16.03
2023-03-11T07:01:18.344Z,10.00
2023-03-11T07:03:47.523Z,11.83
2023-03-11T07:06:16.750Z,8.90
2023-03-11T07:08:43.740Z,8.87
2023-03-11T07:11:14.758Z,9.10
2023-03-11T07:13:41.781Z,10.00
2023-03-11T07:16:12.790Z,10.43
2023-03-11T07:18:39.596Z,7.97
2023-03-11T07:21:08.434Z,6.37
2023-03-11T07:23:36.066Z,8.27
2023-03-11T07:26:02.856Z,7.97
2023-03-11T07:28:29.982Z,8.87
2023-03-11T07:30:56.995Z,9.43
2023-03-11T07:33:24.613Z,7.77
2023-03-11T07:35:52.318Z,6.83
2023-03-11T07:38:19.913Z,8.30
2023-03-11T07:40:46.876Z,6.17
2023-03-11T07:43:13.787Z,5.20
2023-03-11T07:45:40.765Z,6.77
2023-03-11T07:48:07.552Z,5.30
2023-03-11T07:50:34.312Z,3.57
2023-03-11T07:53:01.145Z,6.77
2023-03-11T07:55:28.001Z,7.00
2023-03-11T07:57:54.713Z,5.33
2023-03-11T08:00:21.551Z,5.03
2023-03-11T08:02:48.368Z,4.73
2023-03-11T08:05:15.168Z,4.13
2023-03-11T08:07:42.220Z,5.37
2023-03-11T08:10:09.665Z,6.20
2023-03-11T08:12:36.413Z,6.57
2023-03-11T08:15:03.242Z,4.57
2023-03-11T08:17:29.919Z,3.00
2023-03-11T08:19:56.620Z,6.87
2023-03-11T08:22:23.312Z,2.43
2023-03-11T08:24:53.244Z,3.70
2023-03-11T08:27:19.984Z,6.37
2023-03-11T08:29:47.165Z,4.40
2023-03-11T08:32:14.094Z,4.60
2023-03-11T08:34:40.844Z,3.20
2023-03-11T08:37:07.703Z,3.97
2023-03-11T08:39:34.414Z,4.10
2023-03-11T08:42:03.087Z,2.93
2023-03-11T08:44:29.929Z,3.93
2023-03-11T08:46:56.667Z,2.00
2023-03-11T08:49:23.362Z,4.80
2023-03-11T08:51:50.131Z,2.80
2023-03-11T08:54:17.070Z,2.60
2023-03-11T08:56:47.974Z,2.70
2023-03-11T08:59:14.761Z,3.37
2023-03-11T09:01:42.615Z,3.10
2023-03-11T09:04:09.565Z,3.63
2023-03-11T09:06:36.375Z,2.37
2023-03-11T09:09:03.870Z,2.40
2023-03-11T09:11:30.811Z,4.27
2023-03-11T09:13:57.536Z,3.03
2023-03-11T09:16:25.263Z,3.07
2023-03-11T09:18:51.933Z,2.90
2023-03-11T09:21:18.884Z,2.97
2023-03-11T09:23:46.157Z,3.57
2023-03-11T09:26:13.497Z,3.10
2023-03-11T09:28:41.925Z,2.30
2023-03-11T09:31:08.782Z,6.20
2023-03-11T09:33:40.320Z,2.97
2023-03-11T09:36:07.980Z,3.87
2023-03-11T09:38:34.761Z,4.07
2023-03-11T09:41:09.167Z,6.77
2023-03-11T09:43:49.855Z,5.23
2023-03-11T09:46:30.986Z,3.27
2023-03-11T09:49:29.947Z,4.87
2023-03-11T09:52:25.338Z,5.40
2023-03-11T09:54:55.695Z,7.13
2023-03-11T09:57:27.988Z,4.70
2023-03-11T09:59:55.238Z,6.27
2023-03-11T10:02:28.140Z,5.83
2023-03-11T10:05:01.188Z,3.33
2023-03-11T10:07:53.747Z,5.33
2023-03-11T10:10:21.708Z,3.20
2023-03-11T10:12:57.557Z,4.13
2023-03-11T10:15:24.291Z,5.27
2023-03-11T10:18:09.295Z,3.60
2023-03-11T10:20:49.826Z,2.60
2023-03-11T10:23:42.728Z,5.70
2023-03-11T10:26:17.431Z,2.70
2023-03-11T10:28:46.673Z,1.50
2023-03-11T10:31:26.960Z,3.53
2023-03-11T10:34:02.226Z,3.10
2023-03-11T10:36:58.093Z,2.10
2023-03-11T10:39:25.625Z,6.97
2023-03-11T10:41:59.741Z,4.47
2023-03-11T10:44:32.134Z,5.83
2023-03-11T10:46:58.926Z,4.03
2023-03-11T10:49:25.562Z,2.93
2023-03-11T10:51:54.287Z,2.20
2023-03-11T10:54:27.016Z,1.70
2023-03-11T10:57:03.383Z,2.00
2023-03-11T10:59:45.265Z,2.47
2023-03-11T11:02:26.061Z,3.10
2023-03-11T11:05:17.941Z,1.87
2023-03-11T11:08:05.991Z,5.20
2023-03-11T11:10:34.459Z,4.80
2023-03-11T11:13:13.383Z,5.67
2023-03-11T11:16:15.471Z,2.87
2023-03-11T11:18:51.572Z,4.37
2023-03-11T11:21:43.542Z,4.30
2023-03-11T11:24:25.850Z,1.30
2023-03-11T11:27:04.900Z,2.17
2023-03-11T11:29:31.906Z,5.63
2023-03-11T11:32:13.925Z,2.67
2023-03-11T11:34:41.346Z,4.33
2023-03-11T11:37:13.020Z,1.63
2023-03-11T11:39:51.983Z,1.87
2023-03-11T11:42:19.910Z,1.47
2023-03-11T11:44:52.018Z,2.07
2023-03-11T11:47:38.864Z,2.67
2023-03-11T11:50:15.020Z,0.70
2023-03-11T11:52:49.363Z,1.93
2023-03-11T11:55:30.176Z,0.73
2023-03-11T11:57:57.597Z,3.77
2023-03-11T12:00:34.534Z,1.63
2023-03-11T12:03:27.632Z,3.57
2023-03-11T12:06:00.254Z,2.53
2023-03-11T12:08:41.543Z,3.83
2023-03-11T12:11:17.827Z,3.27
2023-03-11T12:14:03.224Z,2.40
2023-03-11T12:17:04.472Z,1.10
2023-03-11T12:19:41.798Z,1.67
2023-03-11T12:22:26.941Z,1.57
2023-03-11T12:25:14.890Z,1.60
2023-03-11T12:27:54.632Z,1.90
2023-03-11T12:30:32.135Z,2.67
2023-03-11T12:33:12.687Z,4.77
2023-03-11T12:35:39.676Z,1.07
2023-03-11T12:38:17.550Z,3.40
2023-03-11T12:41:04.545Z,4.93
2023-03-11T12:43:33.577Z,3.20
2023-03-11T12:46:02.342Z,3.67
2023-03-11T12:49:09.414Z,1.03
2023-03-11T12:51:37.611Z,4.73
2023-03-11T12:54:30.995Z,2.27
2023-03-11T12:57:17.638Z,4.03
2023-03-11T12:59:53.362Z,3.90
2023-03-11T13:02:43.306Z,3.50
2023-03-11T13:05:23.001Z,2.30
2023-03-11T13:07:57.215Z,3.97
2023-03-11T13:10:45.686Z,1.40
2023-03-11T13:13:33.672Z,2.73
2023-03-11T13:16:12.658Z,1.00
2023-03-11T13:18:47.808Z,1.30
2023-03-11T13:21:27.122Z,5.23
2023-03-11T13:24:25.631Z,5.37
2023-03-11T13:27:02.255Z,3.93
2023-03-11T13:29:36.528Z,12.17
2023-03-11T13:32:35.406Z,1.80
2023-03-11T13:35:24.356Z,1.87
2023-03-11T13:38:09.531Z,1.27
2023-03-11T13:40:41.428Z,4.20
2023-03-11T13:43:16.861Z,2.10
2023-03-11T13:45:51.103Z,6.83
2023-03-11T13:48:24.568Z,3.40
2023-03-11T13:50:56.955Z,2.13
2023-03-11T13:53:40.860Z,3.80
2023-03-11T13:56:18.172Z,2.60
2023-03-11T13:58:44.838Z,2.83
2023-03-11T14:01:16.674Z,2.87
2023-03-11T14:03:45.805Z,7.20
2023-03-11T14:06:19.195Z,2.27
2023-03-11T14:08:57.751Z,2.57
2023-03-11T14:11:31.882Z,5.60
2023-03-11T14:13:58.712Z,3.43
2023-03-11T14:16:43.701Z,8.10
2023-03-11T14:19:18.211Z,4.00
2023-03-11T14:21:53.048Z,3.20
2023-03-11T14:24:26.282Z,4.20
2023-03-11T14:26:56.565Z,3.37
2023-03-11T14:29:36.625Z,3.43
2023-03-11T14:32:17.799Z,8.67
2023-03-11T14:34:45.980Z,8.13
2023-03-11T14:37:37.421Z,2.97
2023-03-11T14:40:21.973Z,2.43
2023-03-11T14:42:53.725Z,3.17
2023-03-11T14:45:24.124Z,2.37
2023-03-11T14:48:03.074Z,2.47
2023-03-11T14:50:32.715Z,2.67
2023-03-11T14:53:08.886Z,3.57
2023-03-11T14:55:44.143Z,10.77
2023-03-11T14:58:51.073Z,7.57
2023-03-11T15:01:30.861Z,15.73
2023-03-11T15:04:06.403Z,5.63
2023-03-11T15:06:35.796Z,2.80
2023-03-11T15:09:10.473Z,8.10
2023-03-11T15:12:13.326Z,3.30
2023-03-11T15:14:50.566Z,4.50
2023-03-11T15:17:37.116Z,4.47
2023-03-11T15:20:23.654Z,7.07
2023-03-11T15:23:00.865Z,9.50
2023-03-11T15:25:30.412Z,4.63
2023-03-11T15:27:57.574Z,6.47
2023-03-11T15:30:28.684Z,11.33
2023-03-11T15:32:56.389Z,5.40
2023-03-11T15:35:26.709Z,8.37
2023-03-11T15:38:20.577Z,6.47
2023-03-11T15:41:09.868Z,4.90
2023-03-11T15:43:47.990Z,4.83
2023-03-11T15:46:14.879Z,8.20
2023-03-11T15:48:43.049Z,4.80
2023-03-11T15:51:20.037Z,10.27
2023-03-11T15:53:46.768Z,8.10
2023-03-11T15:56:21.585Z,8.43
2023-03-11T15:58:48.274Z,3.73
2023-03-11T16:01:14.936Z,6.67
2023-03-11T16:03:41.696Z,6.07
2023-03-11T16:06:08.464Z,12.27
2023-03-11T16:08:35.677Z,9.33
2023-03-11T16:11:02.419Z,5.97
2023-03-11T16:13:29.075Z,13.37
2023-03-11T16:15:55.798Z,6.00
2023-03-11T16:18:22.451Z,3.47
2023-03-11T16:20:52.026Z,6.50
2023-03-11T16:23:44.849Z,3.10
2023-03-11T16:26:17.297Z,5.20
2023-03-11T16:28:44.010Z,7.50
2023-03-11T16:31:10.705Z,6.40
2023-03-11T16:33:37.460Z,8.27
2023-03-11T16:36:05.442Z,5.80
2023-03-11T16:38:43.461Z,5.33
2023-03-11T16:41:10.162Z,9.33
2023-03-11T16:43:37.026Z,3.87
2023-03-11T16:46:03.971Z,5.43
2023-03-11T16:48:30.642Z,6.17
2023-03-11T16:50:57.323Z,7.20
2023-03-11T16:53:25.192Z,3.73
2023-03-11T16:55:52.258Z,9.07
2023-03-11T16:58:19.734Z,6.93
2023-03-11T17:00:46.927Z,5.30
2023-03-11T17:03:16.205Z,5.90
2023-03-11T17:05:43.274Z,11.60
2023-03-11T17:08:10.887Z,2.73
2023-03-11T17:10:39.584Z,6.10
2023-03-11T17:13:07.545Z,3.27
2023-03-11T17:15:39.057Z,3.27
2023-03-11T17:18:06.203Z,4.70
2023-03-11T17:20:33.372Z,7.13
2023-03-11T17:23:00.715Z,2.40
2023-03-11T17:25:27.569Z,1.40
2023-03-11T17:27:54.216Z,1.60
2023-03-11T17:30:35.576Z,5.53
2023-03-11T17:33:03.040Z,2.43
2023-03-11T17:35:29.800Z,3.30
2023-03-11T17:37:57.516Z,6.13
2023-03-11T17:40:24.467Z,7.63
2023-03-11T17:42:51.249Z,7.33
2023-03-11T17:45:18.024Z,3.60
2023-03-11T17:47:44.822Z,4.63
2023-03-11T17:50:12.298Z,5.93
2023-03-11T17:52:39.300Z,4.03
2023-03-11T17:55:06.638Z,7.33
2023-03-11T17:57:44.507Z,5.93
2023-03-11T18:00:14.601Z,7.17
2023-03-11T18:02:41.348Z,5.90
2023-03-11T18:05:09.334Z,7.83
2023-03-11T18:07:39.033Z,6.37
2023-03-11T18:10:08.061Z,3.90
2023-03-11T18:12:35.081Z,5.60
2023-03-11T18:15:06.120Z,4.80
2023-03-11T18:17:34.750Z,8.20
2023-03-11T18:20:01.755Z,4.07
2023-03-11T18:22:28.492Z,4.83
2023-03-11T18:24:55.287Z,6.90
2023-03-11T18:27:22.005Z,4.30
2023-03-11T18:29:48.741Z,6.83
2023-03-11T18:32:15.722Z,8.03
2023-03-11T18:34:42.583Z,10.47
2023-03-11T18:37:09.492Z,10.90
2023-03-11T18:39:36.242Z,7.23
2023-03-11T18:42:02.975Z,3.73
2023-03-11T18:44:29.704Z,3.83
2023-03-11T18:46:56.403Z,10.57
2023-03-11T18:49:23.092Z,5.30
2023-03-11T18:51:49.785Z,3.60
2023-03-11T18:54:16.497Z,3.17
2023-03-11T18:56:43.147Z,5.37
2023-03-11T18:59:12.144Z,5.63
2023-03-11T19:01:38.937Z,6.93
2023-03-11T19:04:06.295Z,5.83
2023-03-11T19:06:33.124Z,5.80
2023-03-11T19:08:59.859Z,5.33
2023-03-11T19:11:29.161Z,5.43
2023-03-11T19:13:55.931Z,7.33
2023-03-11T19:16:25.436Z,5.10
2023-03-11T19:18:53.891Z,5.43
2023-03-11T19:21:21.155Z,3.60
2023-03-11T19:23:49.987Z,5.30
2023-03-11T19:26:16.682Z,3.43
2023-03-11T19:28:43.669Z,2.37
2023-03-11T19:31:10.419Z,12.90
2023-03-11T19:33:37.117Z,2.23
2023-03-11T19:36:06.306Z,3.63
2023-03-11T19:38:33.451Z,2.93
2023-03-11T19:41:02.629Z,4.40
2023-03-11T19:43:29.569Z,5.43
2023-03-11T19:45:56.710Z,3.30
2023-03-11T19:48:24.037Z,6.97
2023-03-11T19:50:51.794Z,6.10
2023-03-11T19:53:19.949Z,2.20
2023-03-11T19:55:55.968Z,3.47
2023-03-11T19:58:24.237Z,4.87
2023-03-11T20:00:51.604Z,6.77
2023-03-11T20:03:19.211Z,5.10
2023-03-11T20:05:47.605Z,5.90
2023-03-11T20:08:17.641Z,5.03
2023-03-11T20:10:47.367Z,4.43
2023-03-11T20:13:16.450Z,10.37
2023-03-11T20:15:43.321Z,8.90
2023-03-11T20:18:10.050Z,6.57
2023-03-11T20:20:39.167Z,8.87
2023-03-11T20:23:06.316Z,6.87
2023-03-11T20:25:33.170Z,5.03
2023-03-11T20:28:00.798Z,7.10
2023-03-11T20:30:28.693Z,5.93
2023-03-11T20:32:56.251Z,6.20
2023-03-11T20:35:23.248Z,4.90
2023-03-11T20:37:50.005Z,3.70
2023-03-11T20:40:18.317Z,7.60
2023-03-11T20:42:47.270Z,4.27
2023-03-11T20:45:22.055Z,5.03
2023-03-11T20:47:50.529Z,3.50
2023-03-11T20:50:17.442Z,7.33
2023-03-11T20:52:44.114Z,6.10
2023-03-11T20:55:11.734Z,7.60
2023-03-11T20:57:39.576Z,7.17
2023-03-11T21:00:11.272Z,10.83
2023-03-11T21:02:39.872Z,7.97
2023-03-11T21:05:08.149Z,4.60
2023-03-11T21:07:35.304Z,5.60
2023-03-11T21:10:04.202Z,8.53
2023-03-11T21:12:31.460Z,2.77
2023-03-11T21:14:58.479Z,12.80
2023-03-11T21:17:25.329Z,8.03
2023-03-11T21:19:52.108Z,4.20
2023-03-11T21:22:19.064Z,2.87
2023-03-11T21:24:46.022Z,6.53
2023-03-11T21:27:12.704Z,5.23
2023-03-11T21:29:39.389Z,7.47
2023-03-11T21:32:06.257Z,3.53
2023-03-11T21:34:33.437Z,5.47
2023-03-11T21:37:00.534Z,5.37
2023-03-11T21:39:27.332Z,7.93
2023-03-11T21:41:56.467Z,3.97
2023-03-11T21:44:23.295Z,6.47
2023-03-11T21:46:50.200Z,6.07
2023-03-11T21:49:17.198Z,5.37
2023-03-11T21:51:43.850Z,4.40
2023-03-11T21:54:12.495Z,4.60
2023-03-11T21:56:39.762Z,4.30
2023-03-11T21:59:06.927Z,9.60
2023-03-11T22:01:34.843Z,3.20
2023-03-11T22:04:02.476Z,4.30
2023-03-11T22:06:31.172Z,5.13
2023-03-11T22:08:58.038Z,3.87
2023-03-11T22:11:25.205Z,5.70
2023-03-11T22:13:54.119Z,7.83
2023-03-11T22:16:22.793Z,12.07
2023-03-11T22:18:50.551Z,6.60
2023-03-11T22:21:18.214Z,6.60
2023-03-11T22:23:45.171Z,7.83
2023-03-11T22:26:12.140Z,7.80
2023-03-11T22:28:38.860Z,6.13
2023-03-11T22:31:10.943Z,3.90
2023-03-11T22:33:37.774Z,7.47
2023-03-11T22:36:05.440Z,5.33
2023-03-11T22:38:32.625Z,9.40
2023-03-11T22:41:00.469Z,5.87
2023-03-11T22:43:27.541Z,12.07
2023-03-11T22:45:54.285Z,9.30
2023-03-11T22:48:21.083Z,4.80
2023-03-11T22:50:47.846Z,2.20
2023-03-11T22:53:15.623Z,3.23
2023-03-11T22:55:45.371Z,3.33
2023-03-11T22:58:12.405Z,5.40
2023-03-11T23:00:39.135Z,10.57
2023-03-11T23:03:06.329Z,12.07
2023-03-11T23:05:40.675Z,6.70
2023-03-11T23:08:12.798Z,6.93
2023-03-11T23:10:41.067Z,11.07
2023-03-11T23:13:08.169Z,4.93
2023-03-11T23:15:35.250Z,2.77
2023-03-11T23:18:02.045Z,3.27
2023-03-11T23:20:28.763Z,10.13
2023-03-11T23:22:55.510Z,3.20
2023-03-11T23:25:22.271Z,8.00
2023-03-11T23:27:48.900Z,6.77
2023-03-11T23:30:17.588Z,7.10
2023-03-11T23:32:45.368Z,3.40
2023-03-11T23:35:12.367Z,5.93
2023-03-11T23:37:39.177Z,6.00
2023-03-11T23:40:07.634Z,3.73
2023-03-11T23:42:34.820Z,7.17
2023-03-11T23:45:01.800Z,3.53
2023-03-11T23:47:28.884Z,2.87
2023-03-11T23:49:55.561Z,8.33
2023-03-11T23:52:22.869Z,5.23
2023-03-11T23:54:49.521Z,3.87
2023-03-11T23:57:16.290Z,3.13
2023-03-11T23:59:43.103Z,4.83
